sensor_id;sensor_type;location;lat;lon;timestamp;P1;durP1;ratioP1;P2;durP2;ratioP2
52650;SDS011;38537;47.226;39.702;2022-08-19T00:01:55;9.45;;;7.53;;
52650;SDS011;38537;47.226;39.702;2022-08-19T00:04:26;11.32;;;7.72;;
52650;SDS011;38537;47.226;39.702;2022-08-19T00:06:57;8.88;;;7.55;;
52650;SDS011;38537;47.226;39.702;2022-08-19T00:09:25;9.07;;;7.30;;
52650;SDS011;38537;47.226;39.702;2022-08-19T00:11:53;8.63;;;7.15;;
52650;SDS011;38537;47.226;39.702;2022-08-19T00:14:22;7.88;;;6.70;;
52650;SDS011;38537;47.226;39.702;2022-08-19T00:16:51;7.93;;;6.82;;
52650;SDS011;38537;47.226;39.702;2022-08-19T00:19:21;13.50;;;7.50;;
52650;SDS011;38537;47.226;39.702;2022-08-19T00:21:49;10.50;;;7.00;;
52650;SDS011;38537;47.226;39.702;2022-08-19T00:24:18;8.48;;;6.95;;
52650;SDS011;38537;47.226;39.702;2022-08-19T00:26:46;7.97;;;7.13;;
52650;SDS011;38537;47.226;39.702;2022-08-19T00:29:15;13.75;;;7.72;;
52650;SDS011;38537;47.226;39.702;2022-08-19T00:31:45;9.00;;;6.82;;
52650;SDS011;38537;47.226;39.702;2022-08-19T00:34:13;11.48;;;7.13;;
52650;SDS011;38537;47.226;39.702;2022-08-19T00:36:41;14.18;;;7.65;;
52650;SDS011;38537;47.226;39.702;2022-08-19T00:39:11;11.32;;;7.60;;
52650;SDS011;38537;47.226;39.702;2022-08-19T00:41:40;15.82;;;9.30;;
52650;SDS011;38537;47.226;39.702;2022-08-19T00:44:11;11.25;;;7.80;;
52650;SDS011;38537;47.226;39.702;2022-08-19T00:46:43;11.93;;;7.53;;
52650;SDS011;38537;47.226;39.702;2022-08-19T00:49:29;13.98;;;8.32;;
52650;SDS011;38537;47.226;39.702;2022-08-19T00:52:07;12.30;;;7.60;;
52650;SDS011;38537;47.226;39.702;2022-08-19T00:54:40;21.05;;;8.93;;
52650;SDS011;38537;47.226;39.702;2022-08-19T00:57:09;12.05;;;7.90;;
52650;SDS011;38537;47.226;39.702;2022-08-19T00:59:42;10.23;;;8.03;;
52650;SDS011;38537;47.226;39.702;2022-08-19T01:02:31;8.65;;;7.53;;
52650;SDS011;38537;47.226;39.702;2022-08-19T01:05:03;12.90;;;7.80;;
52650;SDS011;38537;47.226;39.702;2022-08-19T01:07:34;9.38;;;7.47;;
52650;SDS011;38537;47.226;39.702;2022-08-19T01:10:05;16.90;;;8.30;;
52650;SDS011;38537;47.226;39.702;2022-08-19T01:12:36;11.10;;;8.55;;
52650;SDS011;38537;47.226;39.702;2022-08-19T01:15:05;9.55;;;7.80;;
52650;SDS011;38537;47.226;39.702;2022-08-19T01:17:35;10.02;;;7.78;;
52650;SDS011;38537;47.226;39.702;2022-08-19T01:20:05;11.55;;;8.25;;
52650;SDS011;38537;47.226;39.702;2022-08-19T01:22:37;12.35;;;8.18;;
52650;SDS011;38537;47.226;39.702;2022-08-19T01:25:12;12.20;;;8.07;;
52650;SDS011;38537;47.226;39.702;2022-08-19T01:27:45;12.65;;;8.13;;
52650;SDS011;38537;47.226;39.702;2022-08-19T01:30:20;14.00;;;8.02;;
52650;SDS011;38537;47.226;39.702;2022-08-19T01:32:50;11.90;;;7.80;;
52650;SDS011;38537;47.226;39.702;2022-08-19T01:35:19;10.02;;;7.80;;
52650;SDS011;38537;47.226;39.702;2022-08-19T01:37:54;14.90;;;10.52;;
52650;SDS011;38537;47.226;39.702;2022-08-19T01:40:33;14.70;;;8.45;;
52650;SDS011;38537;47.226;39.702;2022-08-19T01:43:03;17.48;;;8.25;;
52650;SDS011;38537;47.226;39.702;2022-08-19T01:45:32;23.13;;;8.30;;
52650;SDS011;38537;47.226;39.702;2022-08-19T01:48:01;14.45;;;8.05;;
52650;SDS011;38537;47.226;39.702;2022-08-19T01:50:30;15.13;;;8.60;;
52650;SDS011;38537;47.226;39.702;2022-08-19T01:52:59;23.13;;;9.90;;
52650;SDS011;38537;47.226;39.702;2022-08-19T01:55:35;16.25;;;10.07;;
52650;SDS011;38537;47.226;39.702;2022-08-19T01:58:08;12.52;;;10.32;;
52650;SDS011;38537;47.226;39.702;2022-08-19T02:00:42;11.25;;;9.40;;
52650;SDS011;38537;47.226;39.702;2022-08-19T02:03:10;14.00;;;8.32;;
52650;SDS011;38537;47.226;39.702;2022-08-19T02:05:39;12.40;;;8.07;;
52650;SDS011;38537;47.226;39.702;2022-08-19T02:08:07;13.68;;;8.65;;
52650;SDS011;38537;47.226;39.702;2022-08-19T02:10:38;10.48;;;8.40;;
52650;SDS011;38537;47.226;39.702;2022-08-19T02:13:08;13.60;;;10.93;;
52650;SDS011;38537;47.226;39.702;2022-08-19T02:15:56;12.20;;;10.35;;
52650;SDS011;38537;47.226;39.702;2022-08-19T02:18:25;20.77;;;12.13;;
52650;SDS011;38537;47.226;39.702;2022-08-19T02:20:53;13.52;;;10.38;;
52650;SDS011;38537;47.226;39.702;2022-08-19T02:23:22;13.32;;;11.10;;
52650;SDS011;38537;47.226;39.702;2022-08-19T02:25:51;13.77;;;10.52;;
52650;SDS011;38537;47.226;39.702;2022-08-19T02:28:18;11.93;;;10.68;;
52650;SDS011;38537;47.226;39.702;2022-08-19T02:30:46;14.43;;;12.35;;
52650;SDS011;38537;47.226;39.702;2022-08-19T02:33:14;15.10;;;11.25;;
52650;SDS011;38537;47.226;39.702;2022-08-19T02:35:43;17.30;;;13.48;;
52650;SDS011;38537;47.226;39.702;2022-08-19T02:38:12;15.75;;;12.90;;
52650;SDS011;38537;47.226;39.702;2022-08-19T02:40:54;17.15;;;14.75;;
52650;SDS011;38537;47.226;39.702;2022-08-19T02:43:24;15.88;;;10.90;;
52650;SDS011;38537;47.226;39.702;2022-08-19T02:45:52;16.60;;;12.55;;
52650;SDS011;38537;47.226;39.702;2022-08-19T02:48:20;15.40;;;13.27;;
52650;SDS011;38537;47.226;39.702;2022-08-19T02:50:51;15.77;;;12.98;;
52650;SDS011;38537;47.226;39.702;2022-08-19T02:53:22;12.10;;;10.82;;
52650;SDS011;38537;47.226;39.702;2022-08-19T02:55:53;13.38;;;11.13;;
52650;SDS011;38537;47.226;39.702;2022-08-19T02:58:21;14.10;;;11.23;;
52650;SDS011;38537;47.226;39.702;2022-08-19T03:00:52;12.60;;;11.23;;
52650;SDS011;38537;47.226;39.702;2022-08-19T03:03:22;14.68;;;11.90;;
52650;SDS011;38537;47.226;39.702;2022-08-19T03:05:50;11.45;;;9.65;;
52650;SDS011;38537;47.226;39.702;2022-08-19T03:08:23;16.83;;;13.15;;
52650;SDS011;38537;47.226;39.702;2022-08-19T03:10:52;15.80;;;11.85;;
52650;SDS011;38537;47.226;39.702;2022-08-19T03:13:20;13.27;;;11.82;;
52650;SDS011;38537;47.226;39.702;2022-08-19T03:15:48;13.30;;;11.32;;
52650;SDS011;38537;47.226;39.702;2022-08-19T03:18:16;14.95;;;12.20;;
52650;SDS011;38537;47.226;39.702;2022-08-19T03:20:45;10.57;;;9.48;;
52650;SDS011;38537;47.226;39.702;2022-08-19T03:23:16;10.45;;;9.23;;
52650;SDS011;38537;47.226;39.702;2022-08-19T03:25:45;11.43;;;8.98;;
52650;SDS011;38537;47.226;39.702;2022-08-19T03:28:34;12.93;;;8.90;;
52650;SDS011;38537;47.226;39.702;2022-08-19T03:31:06;12.13;;;8.77;;
52650;SDS011;38537;47.226;39.702;2022-08-19T03:33:56;12.98;;;9.68;;
52650;SDS011;38537;47.226;39.702;2022-08-19T03:36:25;20.02;;;13.38;;
52650;SDS011;38537;47.226;39.702;2022-08-19T03:38:56;12.00;;;9.25;;
52650;SDS011;38537;47.226;39.702;2022-08-19T03:41:27;12.23;;;9.27;;
52650;SDS011;38537;47.226;39.702;2022-08-19T03:44:10;9.88;;;8.75;;
52650;SDS011;38537;47.226;39.702;2022-08-19T03:46:44;11.77;;;8.80;;
52650;SDS011;38537;47.226;39.702;2022-08-19T03:49:12;10.07;;;9.00;;
52650;SDS011;38537;47.226;39.702;2022-08-19T03:51:40;10.82;;;8.98;;
52650;SDS011;38537;47.226;39.702;2022-08-19T03:54:10;11.98;;;8.70;;
52650;SDS011;38537;47.226;39.702;2022-08-19T03:56:40;14.73;;;8.98;;
52650;SDS011;38537;47.226;39.702;2022-08-19T03:59:09;14.45;;;9.13;;
52650;SDS011;38537;47.226;39.702;2022-08-19T04:01:40;16.00;;;9.30;;
52650;SDS011;38537;47.226;39.702;2022-08-19T04:04:07;15.10;;;10.65;;
52650;SDS011;38537;47.226;39.702;2022-08-19T04:06:36;13.23;;;9.40;;
52650;SDS011;38537;47.226;39.702;2022-08-19T04:09:09;11.23;;;9.02;;
52650;SDS011;38537;47.226;39.702;2022-08-19T04:11:44;11.93;;;9.52;;
52650;SDS011;38537;47.226;39.702;2022-08-19T04:14:15;13.15;;;8.80;;
52650;SDS011;38537;47.226;39.702;2022-08-19T04:16:46;11.02;;;8.18;;
52650;SDS011;38537;47.226;39.702;2022-08-19T04:19:15;17.40;;;10.95;;
52650;SDS011;38537;47.226;39.702;2022-08-19T04:21:48;11.27;;;8.35;;
52650;SDS011;38537;47.226;39.702;2022-08-19T04:24:18;13.32;;;8.82;;
52650;SDS011;38537;47.226;39.702;2022-08-19T04:26:46;10.70;;;8.55;;
52650;SDS011;38537;47.226;39.702;2022-08-19T04:29:16;12.38;;;8.70;;
52650;SDS011;38537;47.226;39.702;2022-08-19T04:31:45;12.90;;;8.35;;
52650;SDS011;38537;47.226;39.702;2022-08-19T04:34:13;12.93;;;8.43;;
52650;SDS011;38537;47.226;39.702;2022-08-19T04:36:44;9.57;;;8.02;;
52650;SDS011;38537;47.226;39.702;2022-08-19T04:39:13;14.82;;;10.93;;
52650;SDS011;38537;47.226;39.702;2022-08-19T04:41:43;11.10;;;8.93;;
52650;SDS011;38537;47.226;39.702;2022-08-19T04:44:33;9.77;;;8.70;;
52650;SDS011;38537;47.226;39.702;2022-08-19T04:47:11;10.60;;;8.75;;
52650;SDS011;38537;47.226;39.702;2022-08-19T04:49:39;15.05;;;9.85;;
52650;SDS011;38537;47.226;39.702;2022-08-19T04:52:06;12.93;;;9.57;;
52650;SDS011;38537;47.226;39.702;2022-08-19T04:54:35;11.82;;;9.23;;
52650;SDS011;38537;47.226;39.702;2022-08-19T04:57:06;10.85;;;9.25;;
52650;SDS011;38537;47.226;39.702;2022-08-19T04:59:35;13.27;;;9.63;;
52650;SDS011;38537;47.226;39.702;2022-08-19T05:02:04;10.23;;;9.20;;
52650;SDS011;38537;47.226;39.702;2022-08-19T05:04:34;21.48;;;12.50;;
52650;SDS011;38537;47.226;39.702;2022-08-19T05:07:06;10.48;;;9.35;;
52650;SDS011;38537;47.226;39.702;2022-08-19T05:09:34;10.32;;;8.73;;
52650;SDS011;38537;47.226;39.702;2022-08-19T05:12:21;13.50;;;9.23;;
52650;SDS011;38537;47.226;39.702;2022-08-19T05:14:55;12.57;;;10.27;;
52650;SDS011;38537;47.226;39.702;2022-08-19T05:17:27;10.80;;;9.48;;
52650;SDS011;38537;47.226;39.702;2022-08-19T05:20:02;13.13;;;9.90;;
52650;SDS011;38537;47.226;39.702;2022-08-19T05:22:49;16.27;;;12.50;;
52650;SDS011;38537;47.226;39.702;2022-08-19T05:25:18;12.18;;;10.45;;
52650;SDS011;38537;47.226;39.702;2022-08-19T05:27:47;13.55;;;10.30;;
52650;SDS011;38537;47.226;39.702;2022-08-19T05:30:15;13.10;;;11.02;;
52650;SDS011;38537;47.226;39.702;2022-08-19T05:32:46;11.02;;;9.10;;
52650;SDS011;38537;47.226;39.702;2022-08-19T05:35:13;11.25;;;8.82;;
52650;SDS011;38537;47.226;39.702;2022-08-19T05:37:40;11.10;;;9.48;;
52650;SDS011;38537;47.226;39.702;2022-08-19T05:40:08;11.10;;;8.68;;
52650;SDS011;38537;47.226;39.702;2022-08-19T05:42:36;15.77;;;9.05;;
52650;SDS011;38537;47.226;39.702;2022-08-19T05:45:04;11.43;;;8.82;;
52650;SDS011;38537;47.226;39.702;2022-08-19T05:47:33;12.48;;;9.82;;
52650;SDS011;38537;47.226;39.702;2022-08-19T05:50:08;10.93;;;9.40;;
52650;SDS011;38537;47.226;39.702;2022-08-19T05:52:36;12.10;;;9.18;;
52650;SDS011;38537;47.226;39.702;2022-08-19T05:55:09;12.30;;;8.90;;
52650;SDS011;38537;47.226;39.702;2022-08-19T05:57:38;9.77;;;8.70;;
52650;SDS011;38537;47.226;39.702;2022-08-19T06:00:08;12.13;;;8.85;;
52650;SDS011;38537;47.226;39.702;2022-08-19T06:02:38;10.40;;;9.20;;
52650;SDS011;38537;47.226;39.702;2022-08-19T06:05:06;14.52;;;10.30;;
52650;SDS011;38537;47.226;39.702;2022-08-19T06:07:36;13.00;;;9.32;;
52650;SDS011;38537;47.226;39.702;2022-08-19T06:10:05;11.75;;;8.52;;
52650;SDS011;38537;47.226;39.702;2022-08-19T06:12:34;11.68;;;9.40;;
52650;SDS011;38537;47.226;39.702;2022-08-19T06:15:07;10.88;;;8.38;;
52650;SDS011;38537;47.226;39.702;2022-08-19T06:17:37;10.07;;;8.15;;
52650;SDS011;38537;47.226;39.702;2022-08-19T06:20:06;11.18;;;6.95;;
52650;SDS011;38537;47.226;39.702;2022-08-19T06:22:39;7.72;;;6.93;;
52650;SDS011;38537;47.226;39.702;2022-08-19T06:25:08;9.85;;;6.88;;
52650;SDS011;38537;47.226;39.702;2022-08-19T06:27:36;8.93;;;7.55;;
52650;SDS011;38537;47.226;39.702;2022-08-19T06:30:19;8.25;;;6.72;;
52650;SDS011;38537;47.226;39.702;2022-08-19T06:32:46;9.75;;;6.65;;
52650;SDS011;38537;47.226;39.702;2022-08-19T06:35:14;9.27;;;6.63;;
52650;SDS011;38537;47.226;39.702;2022-08-19T06:37:41;9.80;;;7.03;;
52650;SDS011;38537;47.226;39.702;2022-08-19T06:40:09;9.20;;;6.65;;
52650;SDS011;38537;47.226;39.702;2022-08-19T06:42:39;9.40;;;6.60;;
52650;SDS011;38537;47.226;39.702;2022-08-19T06:45:21;10.32;;;7.10;;
52650;SDS011;38537;47.226;39.702;2022-08-19T06:48:00;8.30;;;6.68;;
52650;SDS011;38537;47.226;39.702;2022-08-19T06:50:28;9.13;;;6.68;;
52650;SDS011;38537;47.226;39.702;2022-08-19T06:52:56;10.23;;;6.57;;
52650;SDS011;38537;47.226;39.702;2022-08-19T06:55:30;12.45;;;7.07;;
52650;SDS011;38537;47.226;39.702;2022-08-19T06:58:01;12.32;;;6.85;;
52650;SDS011;38537;47.226;39.702;2022-08-19T07:00:30;10.07;;;6.72;;
52650;SDS011;38537;47.226;39.702;2022-08-19T07:02:58;11.48;;;7.15;;
52650;SDS011;38537;47.226;39.702;2022-08-19T07:05:43;8.52;;;6.40;;
52650;SDS011;38537;47.226;39.702;2022-08-19T07:08:12;9.60;;;7.15;;
52650;SDS011;38537;47.226;39.702;2022-08-19T07:10:43;10.48;;;6.10;;
52650;SDS011;38537;47.226;39.702;2022-08-19T07:13:15;7.65;;;6.47;;
52650;SDS011;38537;47.226;39.702;2022-08-19T07:15:42;7.40;;;6.00;;
52650;SDS011;38537;47.226;39.702;2022-08-19T07:18:10;9.90;;;6.20;;
52650;SDS011;38537;47.226;39.702;2022-08-19T07:20:38;10.18;;;6.32;;
52650;SDS011;38537;47.226;39.702;2022-08-19T07:23:08;9.23;;;6.45;;
52650;SDS011;38537;47.226;39.702;2022-08-19T07:25:42;11.40;;;6.82;;
52650;SDS011;38537;47.226;39.702;2022-08-19T07:28:18;12.82;;;7.72;;
52650;SDS011;38537;47.226;39.702;2022-08-19T07:30:51;14.77;;;7.05;;
52650;SDS011;38537;47.226;39.702;2022-08-19T07:33:19;11.55;;;7.05;;
52650;SDS011;38537;47.226;39.702;2022-08-19T07:35:46;8.80;;;6.93;;
52650;SDS011;38537;47.226;39.702;2022-08-19T07:38:15;11.27;;;6.82;;
52650;SDS011;38537;47.226;39.702;2022-08-19T07:40:43;18.00;;;8.60;;
52650;SDS011;38537;47.226;39.702;2022-08-19T07:43:12;12.48;;;7.88;;
52650;SDS011;38537;47.226;39.702;2022-08-19T07:45:44;15.27;;;7.72;;
52650;SDS011;38537;47.226;39.702;2022-08-19T07:48:11;10.80;;;7.20;;
52650;SDS011;38537;47.226;39.702;2022-08-19T07:50:40;12.90;;;7.18;;
52650;SDS011;38537;47.226;39.702;2022-08-19T07:53:09;9.82;;;6.45;;
52650;SDS011;38537;47.226;39.702;2022-08-19T07:55:36;9.57;;;6.60;;
52650;SDS011;38537;47.226;39.702;2022-08-19T07:58:08;12.07;;;7.22;;
52650;SDS011;38537;47.226;39.702;2022-08-19T08:00:36;10.30;;;7.25;;
52650;SDS011;38537;47.226;39.702;2022-08-19T08:03:03;9.10;;;6.03;;
52650;SDS011;38537;47.226;39.702;2022-08-19T08:05:31;10.45;;;6.47;;
52650;SDS011;38537;47.226;39.702;2022-08-19T08:08:16;9.88;;;7.18;;
52650;SDS011;38537;47.226;39.702;2022-08-19T08:11:03;10.75;;;7.03;;
52650;SDS011;38537;47.226;39.702;2022-08-19T08:13:34;10.93;;;6.80;;
52650;SDS011;38537;47.226;39.702;2022-08-19T08:16:04;10.25;;;7.00;;
52650;SDS011;38537;47.226;39.702;2022-08-19T08:18:39;6.95;;;6.25;;
52650;SDS011;38537;47.226;39.702;2022-08-19T08:21:16;10.02;;;6.80;;
52650;SDS011;38537;47.226;39.702;2022-08-19T08:23:43;9.65;;;6.88;;
52650;SDS011;38537;47.226;39.702;2022-08-19T08:26:11;9.35;;;7.03;;
52650;SDS011;38537;47.226;39.702;2022-08-19T08:28:41;12.43;;;7.35;;
52650;SDS011;38537;47.226;39.702;2022-08-19T08:31:13;11.13;;;7.30;;
52650;SDS011;38537;47.226;39.702;2022-08-19T08:33:41;8.65;;;6.80;;
52650;SDS011;38537;47.226;39.702;2022-08-19T08:36:09;8.95;;;7.28;;
52650;SDS011;38537;47.226;39.702;2022-08-19T08:38:38;9.23;;;6.88;;
52650;SDS011;38537;47.226;39.702;2022-08-19T08:41:18;9.27;;;6.40;;
52650;SDS011;38537;47.226;39.702;2022-08-19T08:43:55;9.32;;;7.15;;
52650;SDS011;38537;47.226;39.702;2022-08-19T08:52:09;9.32;;;7.40;;
52650;SDS011;38537;47.226;39.702;2022-08-19T08:54:42;12.27;;;6.87;;
52650;SDS011;38537;47.226;39.702;2022-08-19T08:57:32;8.27;;;6.90;;
52650;SDS011;38537;47.226;39.702;2022-08-19T09:00:25;8.35;;;7.38;;
52650;SDS011;38537;47.226;39.702;2022-08-19T09:02:56;9.75;;;6.38;;
52650;SDS011;38537;47.226;39.702;2022-08-19T09:05:28;7.78;;;6.50;;
52650;SDS011;38537;47.226;39.702;2022-08-19T09:11:47;8.52;;;6.50;;
52650;SDS011;38537;47.226;39.702;2022-08-19T09:14:36;6.55;;;5.88;;
52650;SDS011;38537;47.226;39.702;2022-08-19T09:17:21;8.27;;;6.40;;
52650;SDS011;38537;47.226;39.702;2022-08-19T09:19:55;9.32;;;6.68;;
52650;SDS011;38537;47.226;39.702;2022-08-19T09:22:41;11.25;;;5.88;;
52650;SDS011;38537;47.226;39.702;2022-08-19T09:25:14;8.75;;;6.35;;
52650;SDS011;38537;47.226;39.702;2022-08-19T09:27:52;11.38;;;6.32;;
52650;SDS011;38537;47.226;39.702;2022-08-19T09:30:33;8.57;;;6.38;;
52650;SDS011;38537;47.226;39.702;2022-08-19T09:33:05;9.10;;;6.50;;
52650;SDS011;38537;47.226;39.702;2022-08-19T09:35:33;9.75;;;7.00;;
52650;SDS011;38537;47.226;39.702;2022-08-19T09:38:19;7.80;;;5.85;;
52650;SDS011;38537;47.226;39.702;2022-08-19T09:40:47;12.52;;;6.80;;
52650;SDS011;38537;47.226;39.702;2022-08-19T09:43:16;7.47;;;6.55;;
52650;SDS011;38537;47.226;39.702;2022-08-19T09:46:00;8.60;;;6.70;;
52650;SDS011;38537;47.226;39.702;2022-08-19T09:48:28;6.57;;;5.95;;
52650;SDS011;38537;47.226;39.702;2022-08-19T09:51:01;6.40;;;5.80;;
52650;SDS011;38537;47.226;39.702;2022-08-19T09:53:37;10.13;;;6.18;;
52650;SDS011;38537;47.226;39.702;2022-08-19T09:56:05;7.15;;;5.70;;
52650;SDS011;38537;47.226;39.702;2022-08-19T09:58:35;7.05;;;5.82;;
52650;SDS011;38537;47.226;39.702;2022-08-19T10:01:04;7.40;;;5.72;;
52650;SDS011;38537;47.226;39.702;2022-08-19T10:03:33;7.85;;;5.82;;
52650;SDS011;38537;47.226;39.702;2022-08-19T10:06:03;11.93;;;6.20;;
52650;SDS011;38537;47.226;39.702;2022-08-19T10:08:40;12.32;;;8.63;;
52650;SDS011;38537;47.226;39.702;2022-08-19T10:11:16;10.02;;;8.85;;
52650;SDS011;38537;47.226;39.702;2022-08-19T10:14:02;10.57;;;8.05;;
52650;SDS011;38537;47.226;39.702;2022-08-19T10:16:32;10.85;;;8.48;;
52650;SDS011;38537;47.226;39.702;2022-08-19T10:19:05;10.32;;;9.15;;
52650;SDS011;38537;47.226;39.702;2022-08-19T10:21:33;11.32;;;8.82;;
52650;SDS011;38537;47.226;39.702;2022-08-19T10:24:02;10.23;;;8.25;;
52650;SDS011;38537;47.226;39.702;2022-08-19T10:26:35;9.48;;;8.23;;
52650;SDS011;38537;47.226;39.702;2022-08-19T10:29:05;10.63;;;8.15;;
52650;SDS011;38537;47.226;39.702;2022-08-19T10:31:35;9.07;;;8.13;;
52650;SDS011;38537;47.226;39.702;2022-08-19T10:34:22;12.48;;;8.38;;
52650;SDS011;38537;47.226;39.702;2022-08-19T10:36:54;14.63;;;9.07;;
52650;SDS011;38537;47.226;39.702;2022-08-19T10:39:27;12.67;;;9.13;;
52650;SDS011;38537;47.226;39.702;2022-08-19T10:42:06;10.50;;;8.18;;
52650;SDS011;38537;47.226;39.702;2022-08-19T10:44:37;12.13;;;10.23;;
52650;SDS011;38537;47.226;39.702;2022-08-19T10:47:04;13.70;;;10.20;;
52650;SDS011;38537;47.226;39.702;2022-08-19T10:49:50;10.55;;;9.43;;
52650;SDS011;38537;47.226;39.702;2022-08-19T10:52:42;12.35;;;9.15;;
52650;SDS011;38537;47.226;39.702;2022-08-19T10:55:17;10.80;;;8.45;;
52650;SDS011;38537;47.226;39.702;2022-08-19T10:58:15;15.60;;;8.27;;
52650;SDS011;38537;47.226;39.702;2022-08-19T11:00:53;11.40;;;7.53;;
52650;SDS011;38537;47.226;39.702;2022-08-19T11:03:25;12.20;;;7.35;;
52650;SDS011;38537;47.226;39.702;2022-08-19T11:05:58;13.63;;;7.75;;
52650;SDS011;38537;47.226;39.702;2022-08-19T11:08:30;9.98;;;7.45;;
52650;SDS011;38537;47.226;39.702;2022-08-19T11:11:00;11.98;;;7.82;;
52650;SDS011;38537;47.226;39.702;2022-08-19T11:13:31;14.25;;;8.20;;
52650;SDS011;38537;47.226;39.702;2022-08-19T11:18:38;12.45;;;7.00;;
52650;SDS011;38537;47.226;39.702;2022-08-19T11:21:15;8.13;;;6.50;;
52650;SDS011;38537;47.226;39.702;2022-08-19T11:23:46;10.57;;;6.90;;
52650;SDS011;38537;47.226;39.702;2022-08-19T11:26:16;10.23;;;7.25;;
52650;SDS011;38537;47.226;39.702;2022-08-19T11:28:44;7.22;;;6.32;;
52650;SDS011;38537;47.226;39.702;2022-08-19T11:31:16;12.02;;;6.82;;
52650;SDS011;38537;47.226;39.702;2022-08-19T11:33:51;9.15;;;6.90;;
52650;SDS011;38537;47.226;39.702;2022-08-19T11:36:22;8.50;;;6.25;;
52650;SDS011;38537;47.226;39.702;2022-08-19T11:38:50;9.15;;;6.95;;
52650;SDS011;38537;47.226;39.702;2022-08-19T11:41:19;8.07;;;6.47;;
52650;SDS011;38537;47.226;39.702;2022-08-19T11:43:47;7.65;;;6.65;;
52650;SDS011;38537;47.226;39.702;2022-08-19T11:46:15;8.05;;;6.25;;
52650;SDS011;38537;47.226;39.702;2022-08-19T11:48:43;11.02;;;6.68;;
52650;SDS011;38537;47.226;39.702;2022-08-19T11:51:13;8.27;;;6.97;;
52650;SDS011;38537;47.226;39.702;2022-08-19T11:53:43;10.18;;;6.63;;
52650;SDS011;38537;47.226;39.702;2022-08-19T11:56:10;9.75;;;6.45;;
52650;SDS011;38537;47.226;39.702;2022-08-19T11:58:39;7.50;;;6.35;;
52650;SDS011;38537;47.226;39.702;2022-08-19T12:01:08;7.38;;;6.60;;
52650;SDS011;38537;47.226;39.702;2022-08-19T12:03:38;9.93;;;7.10;;
52650;SDS011;38537;47.226;39.702;2022-08-19T12:06:07;13.70;;;7.10;;
52650;SDS011;38537;47.226;39.702;2022-08-19T12:08:39;7.57;;;6.13;;
52650;SDS011;38537;47.226;39.702;2022-08-19T12:11:12;10.10;;;6.75;;
52650;SDS011;38537;47.226;39.702;2022-08-19T12:13:40;8.90;;;6.85;;
52650;SDS011;38537;47.226;39.702;2022-08-19T12:16:20;9.48;;;6.85;;
52650;SDS011;38537;47.226;39.702;2022-08-19T12:18:50;9.38;;;7.10;;
52650;SDS011;38537;47.226;39.702;2022-08-19T12:21:18;10.00;;;7.82;;
52650;SDS011;38537;47.226;39.702;2022-08-19T12:23:49;8.70;;;6.57;;
52650;SDS011;38537;47.226;39.702;2022-08-19T12:26:21;10.35;;;6.70;;
52650;SDS011;38537;47.226;39.702;2022-08-19T12:28:51;7.78;;;6.55;;
52650;SDS011;38537;47.226;39.702;2022-08-19T12:31:19;9.07;;;6.53;;
52650;SDS011;38537;47.226;39.702;2022-08-19T12:33:47;8.48;;;6.45;;
52650;SDS011;38537;47.226;39.702;2022-08-19T12:36:15;9.57;;;6.70;;
52650;SDS011;38537;47.226;39.702;2022-08-19T12:38:43;9.55;;;7.03;;
52650;SDS011;38537;47.226;39.702;2022-08-19T12:41:12;7.35;;;6.65;;
52650;SDS011;38537;47.226;39.702;2022-08-19T12:43:41;8.40;;;6.72;;
52650;SDS011;38537;47.226;39.702;2022-08-19T12:46:09;10.15;;;6.47;;
52650;SDS011;38537;47.226;39.702;2022-08-19T12:48:38;11.45;;;7.50;;
52650;SDS011;38537;47.226;39.702;2022-08-19T12:51:11;7.78;;;6.47;;
52650;SDS011;38537;47.226;39.702;2022-08-19T12:53:41;10.20;;;7.10;;
52650;SDS011;38537;47.226;39.702;2022-08-19T12:56:10;9.93;;;6.93;;
52650;SDS011;38537;47.226;39.702;2022-08-19T12:58:39;9.02;;;7.63;;
52650;SDS011;38537;47.226;39.702;2022-08-19T13:01:16;8.93;;;7.40;;
52650;SDS011;38537;47.226;39.702;2022-08-19T13:03:48;11.00;;;7.57;;
52650;SDS011;38537;47.226;39.702;2022-08-19T13:06:18;10.23;;;7.90;;
52650;SDS011;38537;47.226;39.702;2022-08-19T13:08:46;11.73;;;8.27;;
52650;SDS011;38537;47.226;39.702;2022-08-19T13:11:15;11.00;;;7.60;;
52650;SDS011;38537;47.226;39.702;2022-08-19T13:13:46;15.40;;;7.95;;
52650;SDS011;38537;47.226;39.702;2022-08-19T13:16:18;8.82;;;7.25;;
52650;SDS011;38537;47.226;39.702;2022-08-19T13:18:47;7.00;;;6.20;;
52650;SDS011;38537;47.226;39.702;2022-08-19T13:21:14;7.47;;;6.35;;
52650;SDS011;38537;47.226;39.702;2022-08-19T13:23:42;7.75;;;5.65;;
52650;SDS011;38537;47.226;39.702;2022-08-19T13:26:11;8.65;;;5.38;;
52650;SDS011;38537;47.226;39.702;2022-08-19T13:28:39;8.30;;;5.50;;
52650;SDS011;38537;47.226;39.702;2022-08-19T13:31:26;8.32;;;6.30;;
52650;SDS011;38537;47.226;39.702;2022-08-19T13:34:15;6.82;;;5.60;;
52650;SDS011;38537;47.226;39.702;2022-08-19T13:36:43;7.95;;;5.82;;
52650;SDS011;38537;47.226;39.702;2022-08-19T13:39:10;8.45;;;6.18;;
52650;SDS011;38537;47.226;39.702;2022-08-19T13:41:42;7.97;;;6.50;;
52650;SDS011;38537;47.226;39.702;2022-08-19T13:44:15;9.20;;;6.20;;
52650;SDS011;38537;47.226;39.702;2022-08-19T13:46:45;9.80;;;6.53;;
52650;SDS011;38537;47.226;39.702;2022-08-19T13:49:19;10.48;;;7.43;;
52650;SDS011;38537;47.226;39.702;2022-08-19T13:51:47;7.85;;;7.00;;
52650;SDS011;38537;47.226;39.702;2022-08-19T13:54:16;8.85;;;7.03;;
52650;SDS011;38537;47.226;39.702;2022-08-19T13:56:45;8.23;;;6.53;;
52650;SDS011;38537;47.226;39.702;2022-08-19T13:59:12;13.27;;;7.10;;
52650;SDS011;38537;47.226;39.702;2022-08-19T14:01:41;10.10;;;7.07;;
52650;SDS011;38537;47.226;39.702;2022-08-19T14:04:08;10.23;;;6.88;;
52650;SDS011;38537;47.226;39.702;2022-08-19T14:06:37;7.95;;;6.68;;
52650;SDS011;38537;47.226;39.702;2022-08-19T14:09:04;12.73;;;7.03;;
52650;SDS011;38537;47.226;39.702;2022-08-19T14:11:32;10.82;;;7.13;;
52650;SDS011;38537;47.226;39.702;2022-08-19T14:14:00;8.77;;;6.85;;
52650;SDS011;38537;47.226;39.702;2022-08-19T14:16:27;9.07;;;7.03;;
52650;SDS011;38537;47.226;39.702;2022-08-19T14:18:57;11.07;;;7.85;;
52650;SDS011;38537;47.226;39.702;2022-08-19T14:21:26;11.68;;;8.27;;
52650;SDS011;38537;47.226;39.702;2022-08-19T14:23:54;12.57;;;7.65;;
52650;SDS011;38537;47.226;39.702;2022-08-19T14:26:22;9.27;;;8.00;;
52650;SDS011;38537;47.226;39.702;2022-08-19T14:28:50;10.18;;;7.28;;
52650;SDS011;38537;47.226;39.702;2022-08-19T14:31:19;12.70;;;7.70;;
52650;SDS011;38537;47.226;39.702;2022-08-19T14:33:48;10.13;;;7.60;;
52650;SDS011;38537;47.226;39.702;2022-08-19T14:36:16;9.35;;;7.38;;
52650;SDS011;38537;47.226;39.702;2022-08-19T14:38:44;9.95;;;7.43;;
52650;SDS011;38537;47.226;39.702;2022-08-19T14:41:14;11.43;;;8.70;;
52650;SDS011;38537;47.226;39.702;2022-08-19T14:43:44;13.15;;;8.60;;
52650;SDS011;38537;47.226;39.702;2022-08-19T14:46:17;13.27;;;8.73;;
52650;SDS011;38537;47.226;39.702;2022-08-19T14:48:48;15.57;;;8.75;;
52650;SDS011;38537;47.226;39.702;2022-08-19T14:51:18;12.00;;;8.30;;
52650;SDS011;38537;47.226;39.702;2022-08-19T14:53:47;11.27;;;8.40;;
52650;SDS011;38537;47.226;39.702;2022-08-19T14:56:19;11.25;;;9.00;;
52650;SDS011;38537;47.226;39.702;2022-08-19T14:58:49;13.13;;;9.00;;
52650;SDS011;38537;47.226;39.702;2022-08-19T15:01:20;15.93;;;9.07;;